createdAt,value
2023-01-13T00:00:51.552Z,94.32
2023-01-13T00:03:18.038Z,95.51
2023-01-13T00:05:44.563Z,92.47
2023-01-13T00:08:11.836Z,92.57
2023-01-13T00:10:38.448Z,90.90
2023-01-13T00:13:05.258Z,91.22
2023-01-13T00:15:32.365Z,91.43
2023-01-13T00:17:59.310Z,91.42
2023-01-13T00:20:25.891Z,92.08
2023-01-13T00:22:52.467Z,92.15
2023-01-13T00:25:18.948Z,93.50
2023-01-13T00:27:45.536Z,92.01
2023-01-13T00:30:12.325Z,90.35
2023-01-13T00:32:38.915Z,89.66
2023-01-13T00:35:05.684Z,90.73
2023-01-13T00:37:32.212Z,91.39
2023-01-13T00:39:58.750Z,94.09
2023-01-13T00:42:44.004Z,93.91
2023-01-13T00:45:10.763Z,92.04
2023-01-13T00:47:37.283Z,92.05
2023-01-13T00:50:03.946Z,91.77
2023-01-13T00:52:32.162Z,92.81
2023-01-13T00:54:58.718Z,91.96
2023-01-13T00:57:25.264Z,92.58
2023-01-13T00:59:51.850Z,92.56
2023-01-13T01:02:18.471Z,94.10
2023-01-13T01:04:45.063Z,94.01
2023-01-13T01:07:11.834Z,94.46
2023-01-13T01:09:39.638Z,95.91
2023-01-13T01:12:06.317Z,96.93
2023-01-13T01:14:33.032Z,97.73
2023-01-13T01:16:59.715Z,98.86
2023-01-13T01:19:26.256Z,99.81
2023-01-13T01:21:52.782Z,99.27
2023-01-13T01:24:19.384Z,100.00
2023-01-13T01:26:45.895Z,100.00
2023-01-13T01:29:13.810Z,100.00
2023-01-13T01:31:40.325Z,100.00
2023-01-13T01:34:06.939Z,100.00
2023-01-13T01:36:35.019Z,100.00
2023-01-13T01:39:01.644Z,100.00
2023-01-13T01:41:29.788Z,100.00
2023-01-13T01:44:00.214Z,100.00
2023-01-13T01:46:27.148Z,100.00
2023-01-13T01:48:55.889Z,100.00
2023-01-13T01:51:22.439Z,100.00
2023-01-13T01:53:48.971Z,100.00
2023-01-13T01:56:16.012Z,100.00
2023-01-13T01:58:46.517Z,100.00
2023-01-13T02:01:14.289Z,100.00
2023-01-13T02:03:43.443Z,100.00
2023-01-13T02:06:10.085Z,100.00
2023-01-13T02:08:39.276Z,100.00
2023-01-13T02:11:05.864Z,100.00
2023-01-13T02:13:32.431Z,100.00
2023-01-13T02:16:07.608Z,99.24
2023-01-13T02:18:34.201Z,99.18
2023-01-13T02:21:13.912Z,98.98
2023-01-13T02:24:17.657Z,97.10
2023-01-13T02:26:59.230Z,97.07
2023-01-13T02:30:07.552Z,96.41
2023-01-13T02:32:51.280Z,95.79
2023-01-13T02:35:36.530Z,94.51
2023-01-13T02:38:03.315Z,94.25
2023-01-13T02:40:51.005Z,95.85
2023-01-13T02:43:42.290Z,93.69
2023-01-13T02:46:14.586Z,92.61
2023-01-13T02:48:42.568Z,93.18
2023-01-13T02:51:13.404Z,92.65
2023-01-13T02:54:00.163Z,91.85
2023-01-13T02:56:27.190Z,92.79
2023-01-13T02:58:55.834Z,93.06
2023-01-13T03:01:22.390Z,91.36
2023-01-13T03:03:50.145Z,91.76
2023-01-13T03:06:16.518Z,91.83
2023-01-13T03:08:46.727Z,91.36
2023-01-13T03:11:14.443Z,90.71
2023-01-13T03:14:02.414Z,92.09
2023-01-13T03:16:38.500Z,91.40
2023-01-13T03:19:07.731Z,89.55
2023-01-13T03:21:37.246Z,91.79
2023-01-13T03:24:06.802Z,90.52
2023-01-13T03:26:42.215Z,90.31
2023-01-13T03:29:08.552Z,91.76
2023-01-13T03:31:37.872Z,89.76
2023-01-13T03:34:08.350Z,89.98
2023-01-13T03:36:36.467Z,90.22
2023-01-13T03:39:16.562Z,89.75
2023-01-13T03:41:49.528Z,88.84
2023-01-13T03:44:23.165Z,89.36
2023-01-13T03:47:08.447Z,88.96
2023-01-13T03:49:39.469Z,88.97
2023-01-13T03:52:08.985Z,89.68
2023-01-13T03:54:38.455Z,88.76
2023-01-13T03:57:07.566Z,88.79
2023-01-13T03:59:36.170Z,88.65
2023-01-13T04:02:06.734Z,88.01
2023-01-13T04:04:35.709Z,88.92
2023-01-13T04:07:10.097Z,89.30
2023-01-13T04:09:56.673Z,88.21
2023-01-13T04:12:26.412Z,88.71
2023-01-13T04:14:52.924Z,88.08
2023-01-13T04:17:19.638Z,88.69
2023-01-13T04:19:46.021Z,89.84
2023-01-13T04:22:12.811Z,88.82
2023-01-13T04:24:39.211Z,90.13
2023-01-13T04:27:06.287Z,89.38
2023-01-13T04:29:32.724Z,89.51
2023-01-13T04:31:59.113Z,89.20
2023-01-13T04:34:28.161Z,89.67
2023-01-13T04:36:54.674Z,88.27
2023-01-13T04:39:21.031Z,88.31
2023-01-13T04:41:59.410Z,88.13
2023-01-13T04:44:26.709Z,88.57
2023-01-13T04:46:53.422Z,87.84
2023-01-13T04:49:19.857Z,88.16
2023-01-13T04:51:46.236Z,88.04
2023-01-13T04:54:12.837Z,88.54
2023-01-13T04:56:39.317Z,88.19
2023-01-13T04:59:05.873Z,87.84
2023-01-13T05:01:32.475Z,88.20
2023-01-13T05:03:58.923Z,88.36
2023-01-13T05:06:25.326Z,88.22
2023-01-13T05:08:51.813Z,89.16
2023-01-13T05:11:36.839Z,89.73
2023-01-13T05:14:22.243Z,88.55
2023-01-13T05:17:03.442Z,88.03
2023-01-13T05:19:34.076Z,87.39
2023-01-13T05:22:19.817Z,87.46
2023-01-13T05:25:04.676Z,87.34
2023-01-13T05:27:31.829Z,86.88
2023-01-13T05:29:58.526Z,87.51
2023-01-13T05:32:25.414Z,87.24
2023-01-13T05:34:51.755Z,87.80
2023-01-13T05:37:18.131Z,86.84
2023-01-13T05:40:03.134Z,87.80
2023-01-13T05:42:47.956Z,86.80
2023-01-13T05:45:14.369Z,87.34
2023-01-13T05:47:40.817Z,88.94
2023-01-13T05:50:07.461Z,87.22
2023-01-13T05:52:33.971Z,88.04
2023-01-13T05:55:00.351Z,87.13
2023-01-13T05:57:26.796Z,86.97
2023-01-13T05:59:53.160Z,86.90
2023-01-13T06:02:19.535Z,88.07
2023-01-13T06:04:46.050Z,87.92
2023-01-13T06:07:12.651Z,86.34
2023-01-13T06:09:39.200Z,86.83
2023-01-13T06:12:05.700Z,86.18
2023-01-13T06:14:41.188Z,86.54
2023-01-13T06:17:08.544Z,86.46
2023-01-13T06:19:35.146Z,86.96
2023-01-13T06:22:07.894Z,86.98
2023-01-13T06:24:34.495Z,86.33
2023-01-13T06:27:01.011Z,86.52
2023-01-13T06:29:27.673Z,86.98
2023-01-13T06:31:54.084Z,86.54
2023-01-13T06:34:20.975Z,86.03
2023-01-13T06:36:51.747Z,86.80
2023-01-13T06:39:20.183Z,86.49
2023-01-13T06:42:06.491Z,86.40
2023-01-13T06:44:33.134Z,86.37
2023-01-13T06:46:59.548Z,86.30
2023-01-13T06:49:25.978Z,86.20
2023-01-13T06:51:52.365Z,86.83
2023-01-13T06:54:18.830Z,86.51
2023-01-13T06:56:45.173Z,86.57
2023-01-13T06:59:11.565Z,86.80
2023-01-13T07:01:38.206Z,85.90
2023-01-13T07:04:04.901Z,86.64
2023-01-13T07:06:31.424Z,86.43
2023-01-13T07:08:57.849Z,85.97
2023-01-13T07:11:25.023Z,85.93
2023-01-13T07:14:09.921Z,86.35
2023-01-13T07:16:36.389Z,85.75
2023-01-13T07:19:03.249Z,85.98
2023-01-13T07:21:29.615Z,86.77
2023-01-13T07:23:56.096Z,86.07
2023-01-13T07:26:22.522Z,86.10
2023-01-13T07:28:48.972Z,86.27
2023-01-13T07:31:16.926Z,86.89
2023-01-13T07:33:43.403Z,85.57
2023-01-13T07:36:10.053Z,86.94
2023-01-13T07:38:36.728Z,85.77
2023-01-13T07:41:23.087Z,85.78
2023-01-13T07:43:49.761Z,86.23
2023-01-13T07:46:16.727Z,84.94
2023-01-13T07:48:43.521Z,85.14
2023-01-13T07:51:11.691Z,85.93
2023-01-13T07:53:38.652Z,85.17
2023-01-13T07:56:06.567Z,86.48
2023-01-13T07:58:36.755Z,85.64
2023-01-13T08:01:10.675Z,86.42
2023-01-13T08:03:37.153Z,86.20
2023-01-13T08:06:04.097Z,85.08
2023-01-13T08:08:30.582Z,84.68
2023-01-13T08:11:00.246Z,86.54
2023-01-13T08:13:26.828Z,86.72
2023-01-13T08:15:58.443Z,86.68
2023-01-13T08:18:24.827Z,86.78
2023-01-13T08:20:54.700Z,86.82
2023-01-13T08:23:21.944Z,87.76
2023-01-13T08:25:48.708Z,88.75
2023-01-13T08:28:16.002Z,88.61
2023-01-13T08:30:42.927Z,86.57
2023-01-13T08:33:10.760Z,87.15
2023-01-13T08:35:38.232Z,85.52
2023-01-13T08:38:05.040Z,86.07
2023-01-13T08:40:31.931Z,86.34
2023-01-13T08:42:58.428Z,85.08
2023-01-13T08:45:24.917Z,84.82
2023-01-13T08:47:51.556Z,84.96
2023-01-13T08:50:18.695Z,84.64
2023-01-13T08:52:45.333Z,88.30
2023-01-13T08:55:11.803Z,89.36
2023-01-13T08:57:38.251Z,89.54
2023-01-13T09:00:05.551Z,88.29
2023-01-13T09:02:32.226Z,88.77
2023-01-13T09:05:00.422Z,87.29
2023-01-13T09:07:26.838Z,86.56
2023-01-13T09:09:53.174Z,86.41
2023-01-13T09:12:51.644Z,86.77
2023-01-13T09:15:21.880Z,88.79
2023-01-13T09:17:48.324Z,87.13
2023-01-13T09:20:14.923Z,84.89
2023-01-13T09:22:41.503Z,85.06
2023-01-13T09:25:08.084Z,85.38
2023-01-13T09:27:34.486Z,91.21
2023-01-13T09:30:00.870Z,94.84
2023-01-13T09:32:27.245Z,97.45
2023-01-13T09:35:03.800Z,99.86
2023-01-13T09:37:32.067Z,100.00
2023-01-13T09:39:58.483Z,100.00
2023-01-13T09:42:55.859Z,100.00
2023-01-13T09:45:25.205Z,99.57
2023-01-13T09:47:58.136Z,99.39
2023-01-13T09:50:27.283Z,99.89
2023-01-13T09:52:53.820Z,100.00
2023-01-13T09:55:26.110Z,100.00
2023-01-13T09:57:52.648Z,100.00
2023-01-13T10:00:22.313Z,100.00
2023-01-13T10:03:02.374Z,100.00
2023-01-13T10:05:35.096Z,100.00
2023-01-13T10:08:15.533Z,100.00
2023-01-13T10:10:45.288Z,100.00
2023-01-13T10:13:17.673Z,100.00
2023-01-13T10:15:50.364Z,100.00
2023-01-13T10:18:34.681Z,100.00
2023-01-13T10:21:13.248Z,100.00
2023-01-13T10:23:58.408Z,100.00
2023-01-13T10:26:34.501Z,100.00
2023-01-13T10:29:00.878Z,100.00
2023-01-13T10:31:27.370Z,100.00
2023-01-13T10:34:01.112Z,100.00
2023-01-13T10:36:27.737Z,100.00
2023-01-13T10:38:57.932Z,100.00
2023-01-13T10:41:25.521Z,100.00
2023-01-13T10:43:51.875Z,100.00
2023-01-13T10:46:19.052Z,100.00
2023-01-13T10:48:52.906Z,100.00
2023-01-13T10:51:19.275Z,100.00
2023-01-13T10:53:47.145Z,100.00
2023-01-13T10:56:17.386Z,100.00
2023-01-13T10:58:43.803Z,100.00
2023-01-13T11:01:18.382Z,100.00
2023-01-13T11:03:47.603Z,100.00
2023-01-13T11:06:25.012Z,100.00
2023-01-13T11:08:52.545Z,100.00
2023-01-13T11:11:26.512Z,100.00
2023-01-13T11:14:13.889Z,100.00
2023-01-13T11:16:52.787Z,100.00
2023-01-13T11:19:21.593Z,100.00
2023-01-13T11:21:53.433Z,100.00
2023-01-13T11:24:29.807Z,100.00
2023-01-13T11:27:02.140Z,100.00
2023-01-13T11:29:46.733Z,100.00
2023-01-13T11:32:16.791Z,100.00
2023-01-13T11:34:45.121Z,100.00
2023-01-13T11:37:23.525Z,100.00
2023-01-13T11:39:49.914Z,100.00
2023-01-13T11:42:28.649Z,100.00
2023-01-13T11:45:01.140Z,100.00
2023-01-13T11:47:27.840Z,100.00
2023-01-13T11:49:54.351Z,100.00
2023-01-13T11:52:42.946Z,100.00
2023-01-13T11:55:17.460Z,98.76
2023-01-13T11:58:02.355Z,98.96
2023-01-13T12:00:47.433Z,97.32
2023-01-13T12:03:22.252Z,98.39
2023-01-13T12:05:48.708Z,96.65
2023-01-13T12:08:18.322Z,95.45
2023-01-13T12:10:53.563Z,95.59
2023-01-13T12:13:38.968Z,97.34
2023-01-13T12:16:05.383Z,95.84
2023-01-13T12:18:34.577Z,92.08
2023-01-13T12:21:21.050Z,91.66
2023-01-13T12:24:02.613Z,91.86
2023-01-13T12:26:32.292Z,91.10
2023-01-13T12:28:58.699Z,90.30
2023-01-13T12:31:25.388Z,89.45
2023-01-13T12:34:00.146Z,89.49
2023-01-13T12:36:26.467Z,87.55
2023-01-13T12:38:57.420Z,86.52
2023-01-13T12:41:35.325Z,86.21
2023-01-13T12:44:17.059Z,83.76
2023-01-13T12:46:50.741Z,82.83
2023-01-13T12:49:21.960Z,82.55
2023-01-13T12:51:51.139Z,82.55
2023-01-13T12:54:31.223Z,82.96
2023-01-13T12:56:58.474Z,82.55
2023-01-13T12:59:24.804Z,84.49
2023-01-13T13:01:52.540Z,85.08
2023-01-13T13:04:41.783Z,83.97
2023-01-13T13:07:10.294Z,83.96
2023-01-13T13:09:42.517Z,86.14
2023-01-13T13:12:46.529Z,84.02
2023-01-13T13:15:20.856Z,84.70
2023-01-13T13:18:00.849Z,84.05
2023-01-13T13:20:45.877Z,84.63
2023-01-13T13:23:27.553Z,83.58
2023-01-13T13:26:12.822Z,84.66
2023-01-13T13:28:44.600Z,83.42
2023-01-13T13:31:40.402Z,83.57
2023-01-13T13:34:09.795Z,82.08
2023-01-13T13:36:45.318Z,84.86
2023-01-13T13:39:45.370Z,84.21
2023-01-13T13:42:32.670Z,84.58
2023-01-13T13:45:19.095Z,83.90
2023-01-13T13:47:45.532Z,84.01
2023-01-13T13:50:20.516Z,85.19
2023-01-13T13:53:05.173Z,83.08
2023-01-13T13:55:31.963Z,83.80
2023-01-13T13:57:59.040Z,84.13
2023-01-13T14:00:27.580Z,83.54
2023-01-13T14:02:57.246Z,84.02
2023-01-13T14:05:46.343Z,84.39
2023-01-13T14:08:15.137Z,84.33
2023-01-13T14:10:43.366Z,84.80
2023-01-13T14:13:29.081Z,84.73
2023-01-13T14:16:05.595Z,85.50
2023-01-13T14:18:33.078Z,84.60
2023-01-13T14:21:00.823Z,86.28
2023-01-13T14:23:31.679Z,84.99
2023-01-13T14:26:02.206Z,85.21
2023-01-13T14:28:30.171Z,84.71
2023-01-13T14:30:56.971Z,85.36
2023-01-13T14:33:26.913Z,84.30
2023-01-13T14:36:11.737Z,84.70
2023-01-13T14:38:38.233Z,83.76
2023-01-13T14:41:19.944Z,84.35
2023-01-13T14:43:47.429Z,84.22
2023-01-13T14:46:14.656Z,84.58
2023-01-13T14:48:47.020Z,84.92
2023-01-13T14:51:20.296Z,85.52
2023-01-13T14:53:48.510Z,85.31
2023-01-13T14:56:33.733Z,85.34
2023-01-13T14:59:02.393Z,85.92
2023-01-13T15:01:35.110Z,85.63
2023-01-13T15:04:20.294Z,85.38
2023-01-13T15:06:47.563Z,87.94
2023-01-13T15:09:13.991Z,90.07
2023-01-13T15:11:40.877Z,93.15
2023-01-13T15:14:10.699Z,94.02
2023-01-13T15:16:37.151Z,90.51
2023-01-13T15:19:04.356Z,92.03
2023-01-13T15:21:30.725Z,90.15
2023-01-13T15:23:57.186Z,91.99
2023-01-13T15:26:27.661Z,91.01
2023-01-13T15:28:55.785Z,89.39
2023-01-13T15:31:22.937Z,89.24
2023-01-13T15:33:49.708Z,90.45
2023-01-13T15:36:22.123Z,92.61
2023-01-13T15:38:48.771Z,92.74
2023-01-13T15:41:15.195Z,93.34
2023-01-13T15:44:00.113Z,93.99
2023-01-13T15:46:39.142Z,94.13
2023-01-13T15:49:17.193Z,94.56
2023-01-13T15:51:44.188Z,95.00
2023-01-13T15:54:13.388Z,95.45
2023-01-13T15:56:41.997Z,95.42
2023-01-13T15:59:21.077Z,96.11
2023-01-13T16:01:47.766Z,96.65
2023-01-13T16:04:14.210Z,97.37
2023-01-13T16:06:40.919Z,97.33
2023-01-13T16:09:07.387Z,98.49
2023-01-13T16:11:33.920Z,98.34
2023-01-13T16:14:00.345Z,99.01
2023-01-13T16:16:27.941Z,98.12
2023-01-13T16:18:54.533Z,97.39
2023-01-13T16:21:21.583Z,96.72
2023-01-13T16:23:48.844Z,97.04
2023-01-13T16:26:18.375Z,97.38
2023-01-13T16:28:44.819Z,97.02
2023-01-13T16:31:37.279Z,97.98
2023-01-13T16:34:04.284Z,98.33
2023-01-13T16:36:32.136Z,99.03
2023-01-13T16:38:58.594Z,99.18
2023-01-13T16:41:25.124Z,98.21
2023-01-13T16:43:51.995Z,97.38
2023-01-13T16:46:28.898Z,97.87
2023-01-13T16:48:56.990Z,98.46
2023-01-13T16:51:24.323Z,97.13
2023-01-13T16:53:51.291Z,97.51
2023-01-13T16:56:21.336Z,97.59
2023-01-13T16:58:47.985Z,97.71
2023-01-13T17:01:18.726Z,97.41
2023-01-13T17:03:49.240Z,97.15
2023-01-13T17:06:17.387Z,97.53
2023-01-13T17:08:43.836Z,96.72
2023-01-13T17:11:10.293Z,96.84
2023-01-13T17:13:36.813Z,96.18
2023-01-13T17:16:03.344Z,95.19
2023-01-13T17:18:29.904Z,95.57
2023-01-13T17:20:58.132Z,95.31
2023-01-13T17:23:24.919Z,94.72
2023-01-13T17:25:54.673Z,93.86
2023-01-13T17:28:21.341Z,93.81
2023-01-13T17:30:47.993Z,93.59
2023-01-13T17:33:14.396Z,94.47
2023-01-13T17:35:40.858Z,94.20
2023-01-13T17:38:07.233Z,93.36
2023-01-13T17:40:33.652Z,92.06
2023-01-13T17:43:00.089Z,90.63
2023-01-13T17:45:26.814Z,91.06
2023-01-13T17:47:57.258Z,89.03
2023-01-13T17:50:24.251Z,88.44
2023-01-13T17:52:50.775Z,88.06
2023-01-13T17:55:17.474Z,88.23
2023-01-13T17:57:44.109Z,87.07
2023-01-13T18:00:12.409Z,86.12
2023-01-13T18:02:38.947Z,85.75
2023-01-13T18:05:05.589Z,86.91
2023-01-13T18:07:32.038Z,86.06
2023-01-13T18:09:58.534Z,86.82
2023-01-13T18:12:25.042Z,88.04
2023-01-13T18:14:51.466Z,90.19
2023-01-13T18:17:18.468Z,91.68
2023-01-13T18:20:03.335Z,93.32
2023-01-13T18:22:48.638Z,93.09
2023-01-13T18:25:33.535Z,94.80
2023-01-13T18:28:03.803Z,93.52
2023-01-13T18:30:30.544Z,93.74
2023-01-13T18:32:57.664Z,94.69
2023-01-13T18:35:24.083Z,96.57
2023-01-13T18:37:52.115Z,96.45
2023-01-13T18:40:18.621Z,94.40
2023-01-13T18:42:51.344Z,95.28
2023-01-13T18:45:28.450Z,94.86
2023-01-13T18:47:56.197Z,96.07
2023-01-13T18:50:23.261Z,95.04
2023-01-13T18:52:50.037Z,95.11
2023-01-13T18:55:16.487Z,93.54
2023-01-13T18:57:42.958Z,92.78
2023-01-13T19:00:10.736Z,93.42
2023-01-13T19:02:37.228Z,92.77
2023-01-13T19:05:04.030Z,91.46
2023-01-13T19:07:31.966Z,91.08
2023-01-13T19:09:59.623Z,91.11
2023-01-13T19:12:26.547Z,90.40
2023-01-13T19:14:56.504Z,90.38
2023-01-13T19:17:23.730Z,90.16
2023-01-13T19:19:51.620Z,89.47
2023-01-13T19:22:19.892Z,90.14
2023-01-13T19:24:46.508Z,87.65
2023-01-13T19:27:16.361Z,87.19
2023-01-13T19:29:47.361Z,87.08
2023-01-13T19:32:20.121Z,87.74
2023-01-13T19:34:47.865Z,87.67
2023-01-13T19:37:14.294Z,88.20
2023-01-13T19:39:40.942Z,87.55
2023-01-13T19:42:26.092Z,86.81
2023-01-13T19:45:10.979Z,87.38
2023-01-13T19:47:38.772Z,87.94
2023-01-13T19:50:07.975Z,87.02
2023-01-13T19:52:34.590Z,86.87
2023-01-13T19:55:02.115Z,86.89
2023-01-13T19:57:28.747Z,86.34
2023-01-13T19:59:55.278Z,86.42
2023-01-13T20:02:28.168Z,86.96
2023-01-13T20:04:56.097Z,86.59
2023-01-13T20:07:24.222Z,87.21
2023-01-13T20:09:52.210Z,86.82
2023-01-13T20:12:19.949Z,87.25
2023-01-13T20:14:47.691Z,87.70
2023-01-13T20:17:14.848Z,87.87
2023-01-13T20:19:41.553Z,88.07
2023-01-13T20:22:08.430Z,87.63
2023-01-13T20:24:34.852Z,87.62
2023-01-13T20:27:01.846Z,87.69
2023-01-13T20:29:29.851Z,88.54
2023-01-13T20:31:56.825Z,88.35
2023-01-13T20:34:23.914Z,89.17
2023-01-13T20:36:50.876Z,88.80
2023-01-13T20:39:21.828Z,88.72
2023-01-13T20:42:07.118Z,88.24
2023-01-13T20:44:33.789Z,88.45
2023-01-13T20:47:00.453Z,87.98
2023-01-13T20:49:27.548Z,88.46
2023-01-13T20:51:54.423Z,88.66
2023-01-13T20:54:21.193Z,88.53
2023-01-13T20:56:47.917Z,87.40
2023-01-13T20:59:14.630Z,87.78
2023-01-13T21:01:41.086Z,88.02
2023-01-13T21:04:07.504Z,87.64
2023-01-13T21:06:34.370Z,88.41
2023-01-13T21:09:00.822Z,88.63
2023-01-13T21:11:46.711Z,89.01
2023-01-13T21:14:35.712Z,89.31
2023-01-13T21:17:02.506Z,90.22
2023-01-13T21:19:28.938Z,89.56
2023-01-13T21:21:55.826Z,89.91
2023-01-13T21:24:22.513Z,89.81
2023-01-13T21:26:53.615Z,89.46
2023-01-13T21:29:20.091Z,89.15
2023-01-13T21:31:46.524Z,89.27
2023-01-13T21:34:12.910Z,89.26
2023-01-13T21:36:39.275Z,88.98
2023-01-13T21:39:06.180Z,88.99
2023-01-13T21:41:51.417Z,89.35
2023-01-13T21:44:37.326Z,90.99
2023-01-13T21:47:22.699Z,89.88
2023-01-13T21:49:49.181Z,90.15
2023-01-13T21:52:15.552Z,90.41
2023-01-13T21:55:00.554Z,90.26
2023-01-13T21:57:27.504Z,90.79
2023-01-13T21:59:54.120Z,89.88
2023-01-13T22:02:31.891Z,90.04
2023-01-13T22:05:02.120Z,90.25
2023-01-13T22:07:28.556Z,89.51
2023-01-13T22:09:55.224Z,89.98
2023-01-13T22:12:25.076Z,90.24
2023-01-13T22:14:52.118Z,90.34
2023-01-13T22:17:22.595Z,90.51
2023-01-13T22:19:49.765Z,90.99
2023-01-13T22:22:18.632Z,90.66
2023-01-13T22:24:47.392Z,91.02
2023-01-13T22:27:14.910Z,90.87
2023-01-13T22:29:41.398Z,91.22
2023-01-13T22:32:07.724Z,91.76
2023-01-13T22:34:34.327Z,91.61
2023-01-13T22:37:00.801Z,91.65
2023-01-13T22:39:27.155Z,91.90
2023-01-13T22:41:53.504Z,92.07
2023-01-13T22:44:20.560Z,92.05
2023-01-13T22:46:46.950Z,91.40
2023-01-13T22:49:13.956Z,91.21
2023-01-13T22:51:40.594Z,91.72
2023-01-13T22:54:06.970Z,91.32
2023-01-13T22:56:33.786Z,91.54
2023-01-13T22:59:00.790Z,91.77
2023-01-13T23:01:28.459Z,91.38
2023-01-13T23:03:55.230Z,91.25
2023-01-13T23:06:22.184Z,91.27
2023-01-13T23:08:48.966Z,91.44
2023-01-13T23:11:16.831Z,91.30
2023-01-13T23:13:43.487Z,91.18
2023-01-13T23:16:11.458Z,91.60
2023-01-13T23:18:37.922Z,91.73
2023-01-13T23:21:04.373Z,91.13
2023-01-13T23:23:30.993Z,91.74
2023-01-13T23:25:57.358Z,91.84
2023-01-13T23:28:23.735Z,91.40
2023-01-13T23:30:51.619Z,91.21
2023-01-13T23:33:18.266Z,91.18
2023-01-13T23:35:54.609Z,91.11
2023-01-13T23:38:20.945Z,91.78
2023-01-13T23:40:47.363Z,91.83
2023-01-13T23:43:13.713Z,91.87
2023-01-13T23:45:40.072Z,92.06
2023-01-13T23:48:06.700Z,92.46
2023-01-13T23:50:33.121Z,92.50
2023-01-13T23:52:59.533Z,92.57
2023-01-13T23:55:26.217Z,92.03
2023-01-13T23:57:52.544Z,91.55
